createdAt,value
2023-11-04T00:00:55.559Z,2.20
2023-11-04T00:03:28.474Z,2.00
2023-11-04T00:05:55.319Z,2.10
2023-11-04T00:08:22.087Z,2.13
2023-11-04T00:10:51.201Z,2.22
2023-11-04T00:13:17.999Z,2.20
2023-11-04T00:15:46.180Z,1.83
2023-11-04T00:18:13.168Z,1.65
2023-11-04T00:20:45.985Z,1.92
2023-11-04T00:23:18.282Z,2.65
2023-11-04T00:25:46.289Z,2.25
2023-11-04T00:28:13.139Z,2.30
2023-11-04T00:30:40.009Z,2.30
2023-11-04T00:33:06.878Z,2.28
2023-11-04T00:35:33.653Z,1.63
2023-11-04T00:38:00.413Z,1.75
2023-11-04T00:40:27.304Z,2.03
2023-11-04T00:42:54.550Z,2.10
2023-11-04T00:45:22.675Z,1.70
2023-11-04T00:47:49.748Z,1.90
2023-11-04T00:50:20.880Z,2.40
2023-11-04T00:52:48.934Z,1.92
2023-11-04T00:55:15.741Z,2.05
2023-11-04T00:57:42.595Z,2.08
2023-11-04T01:00:10.837Z,2.20
2023-11-04T01:02:37.653Z,2.38
2023-11-04T01:05:05.047Z,2.58
2023-11-04T01:07:32.406Z,2.42
2023-11-04T01:09:59.192Z,2.53
2023-11-04T01:12:26.611Z,1.75
2023-11-04T01:14:54.358Z,2.20
2023-11-04T01:17:22.371Z,2.03
2023-11-04T01:19:49.142Z,2.17
2023-11-04T01:22:18.677Z,2.22
2023-11-04T01:24:45.474Z,2.35
2023-11-04T01:27:18.478Z,1.83
2023-11-04T01:29:45.373Z,2.78
2023-11-04T01:32:14.329Z,1.88
2023-11-04T01:34:41.143Z,1.60
2023-11-04T01:37:07.962Z,2.03
2023-11-04T01:39:34.956Z,2.10
2023-11-04T01:42:07.205Z,2.85
2023-11-04T01:44:36.525Z,2.28
2023-11-04T01:47:04.040Z,2.03
2023-11-04T01:49:30.803Z,1.70
2023-11-04T01:51:59.919Z,2.17
2023-11-04T01:54:27.765Z,2.30
2023-11-04T01:56:55.259Z,2.00
2023-11-04T01:59:24.147Z,2.13
2023-11-04T02:01:50.987Z,1.92
2023-11-04T02:04:18.169Z,1.98
2023-11-04T02:06:54.988Z,2.05
2023-11-04T02:09:25.382Z,1.75
2023-11-04T02:11:54.801Z,2.13
2023-11-04T02:14:22.900Z,1.70
2023-11-04T02:16:50.171Z,1.80
2023-11-04T02:19:20.140Z,2.08
2023-11-04T02:24:17.805Z,1.80
2023-11-04T02:26:44.579Z,1.65
2023-11-04T02:29:11.358Z,1.70
2023-11-04T02:31:39.382Z,1.70
2023-11-04T02:34:06.237Z,2.25
2023-11-04T02:36:37.421Z,2.05
2023-11-04T02:39:04.468Z,1.88
2023-11-04T02:41:31.183Z,1.83
2023-11-04T02:43:57.976Z,1.80
2023-11-04T02:46:25.998Z,2.10
2023-11-04T02:48:52.838Z,1.90
2023-11-04T02:51:19.710Z,1.92
2023-11-04T02:53:46.471Z,1.83
2023-11-04T02:56:16.624Z,2.08
2023-11-04T02:58:43.795Z,1.83
2023-11-04T03:01:10.523Z,2.00
2023-11-04T03:03:37.439Z,1.85
2023-11-04T03:06:04.444Z,2.38
2023-11-04T03:08:31.713Z,1.85
2023-11-04T03:10:58.429Z,1.77
2023-11-04T03:13:26.949Z,1.90
2023-11-04T03:15:53.766Z,1.85
2023-11-04T03:18:20.776Z,2.03
2023-11-04T03:20:48.819Z,1.58
2023-11-04T03:23:15.582Z,2.05
2023-11-04T03:25:42.952Z,1.80
2023-11-04T03:28:10.764Z,1.55
2023-11-04T03:30:37.869Z,1.67
2023-11-04T03:33:04.808Z,1.75
2023-11-04T03:35:31.744Z,1.80
2023-11-04T03:37:58.605Z,1.80
2023-11-04T03:40:27.439Z,1.73
2023-11-04T03:42:54.251Z,2.05
2023-11-04T03:45:21.066Z,2.42
2023-11-04T03:47:48.046Z,1.88
2023-11-04T03:50:14.852Z,1.85
2023-11-04T03:52:44.195Z,1.90
2023-11-04T03:55:10.946Z,1.52
2023-11-04T03:57:37.756Z,1.80
2023-11-04T04:00:04.916Z,1.42
2023-11-04T04:02:31.801Z,1.80
2023-11-04T04:04:59.442Z,1.77
2023-11-04T04:07:26.192Z,1.60
2023-11-04T04:09:53.227Z,1.60
2023-11-04T04:12:20.190Z,1.83
2023-11-04T04:14:47.200Z,2.00
2023-11-04T04:17:14.132Z,2.08
2023-11-04T04:19:40.917Z,2.13
2023-11-04T04:22:09.120Z,1.80
2023-11-04T04:24:37.259Z,1.77
2023-11-04T04:27:06.004Z,1.65
2023-11-04T04:29:33.136Z,1.85
2023-11-04T04:31:59.883Z,2.10
2023-11-04T04:34:26.680Z,2.15
2023-11-04T04:36:53.575Z,1.80
2023-11-04T04:39:23.952Z,1.95
2023-11-04T04:41:50.993Z,2.05
2023-11-04T04:44:18.282Z,1.98
2023-11-04T04:46:45.099Z,2.10
2023-11-04T04:49:12.137Z,2.00
2023-11-04T04:51:40.011Z,1.95
2023-11-04T04:54:09.687Z,2.42
2023-11-04T04:56:36.419Z,2.72
2023-11-04T04:59:04.192Z,2.10
2023-11-04T05:01:32.222Z,2.22
2023-11-04T05:03:59.070Z,1.73
2023-11-04T05:06:26.735Z,2.33
2023-11-04T05:08:53.520Z,2.05
2023-11-04T05:11:20.288Z,2.92
2023-11-04T05:13:48.661Z,2.20
2023-11-04T05:16:15.608Z,2.13
2023-11-04T05:18:42.534Z,1.90
2023-11-04T05:21:09.386Z,2.28
2023-11-04T05:23:36.303Z,1.98
2023-11-04T05:26:03.252Z,2.03
2023-11-04T05:28:30.045Z,2.10
2023-11-04T05:30:57.142Z,2.33
2023-11-04T05:33:24.447Z,2.10
2023-11-04T05:35:51.344Z,2.03
2023-11-04T05:38:19.532Z,2.42
2023-11-04T05:40:48.979Z,1.90
2023-11-04T05:43:16.531Z,2.20
2023-11-04T05:45:43.408Z,2.13
2023-11-04T05:48:10.323Z,2.28
2023-11-04T05:50:37.131Z,2.35
2023-11-04T05:53:04.803Z,2.10
2023-11-04T05:55:32.496Z,2.20
2023-11-04T05:58:02.568Z,2.10
2023-11-04T06:00:29.765Z,2.08
2023-11-04T06:02:56.615Z,2.33
2023-11-04T06:05:25.397Z,2.25
2023-11-04T06:07:52.174Z,2.97
2023-11-04T06:10:19.098Z,2.10
2023-11-04T06:12:45.885Z,2.25
2023-11-04T06:15:12.707Z,2.40
2023-11-04T06:17:39.977Z,2.13
2023-11-04T06:20:07.408Z,2.60
2023-11-04T06:22:35.734Z,2.38
2023-11-04T06:25:03.659Z,2.40
2023-11-04T06:27:31.529Z,2.95
2023-11-04T06:29:58.943Z,3.28
2023-11-04T06:32:25.930Z,3.25
2023-11-04T06:34:52.881Z,3.55
2023-11-04T06:37:19.584Z,3.58
2023-11-04T06:39:47.897Z,2.85
2023-11-04T06:42:19.771Z,2.50
2023-11-04T06:44:47.183Z,2.50
2023-11-04T06:47:14.099Z,2.65
2023-11-04T06:49:40.907Z,2.80
2023-11-04T06:52:07.753Z,2.58
2023-11-04T06:54:34.856Z,3.33
2023-11-04T06:57:01.596Z,3.05
2023-11-04T06:59:28.465Z,3.22
2023-11-04T07:01:55.199Z,2.70
2023-11-04T07:04:23.696Z,4.15
2023-11-04T07:06:53.727Z,4.47
2023-11-04T07:09:20.523Z,5.07
2023-11-04T07:11:47.313Z,4.63
2023-11-04T07:14:15.451Z,4.45
2023-11-04T07:16:42.186Z,3.47
2023-11-04T07:19:11.672Z,5.25
2023-11-04T07:21:39.095Z,3.95
2023-11-04T07:24:06.457Z,3.22
2023-11-04T07:26:33.240Z,3.17
2023-11-04T07:28:59.984Z,3.47
2023-11-04T07:31:28.776Z,2.80
2023-11-04T07:33:56.066Z,3.08
2023-11-04T07:36:27.581Z,2.72
2023-11-04T07:38:54.921Z,2.63
2023-11-04T07:41:23.063Z,2.15
2023-11-04T07:43:50.367Z,2.70
2023-11-04T07:46:17.942Z,2.40
2023-11-04T07:48:44.898Z,2.38
2023-11-04T07:51:12.258Z,2.50
2023-11-04T07:53:39.367Z,3.00
2023-11-04T07:56:06.738Z,3.13
2023-11-04T07:58:33.663Z,2.63
2023-11-04T08:01:00.515Z,2.60
2023-11-04T08:03:27.443Z,2.75
2023-11-04T08:05:54.442Z,2.60
2023-11-04T08:08:21.704Z,2.40
2023-11-04T08:10:49.875Z,2.55
2023-11-04T08:13:16.876Z,2.07
2023-11-04T08:15:43.606Z,2.35
2023-11-04T08:18:11.352Z,3.25
2023-11-04T08:20:38.606Z,2.75
2023-11-04T08:23:07.432Z,2.35
2023-11-04T08:25:34.201Z,2.30
2023-11-04T08:28:02.112Z,2.33
2023-11-04T08:30:29.118Z,1.70
2023-11-04T08:32:57.475Z,1.88
2023-11-04T08:35:24.269Z,2.72
2023-11-04T08:37:54.473Z,2.30
2023-11-04T08:40:22.819Z,1.90
2023-11-04T08:42:49.633Z,1.80
2023-11-04T08:45:16.828Z,2.08
2023-11-04T08:47:45.170Z,2.17
2023-11-04T08:50:12.343Z,1.67
2023-11-04T08:52:39.933Z,2.08
2023-11-04T08:55:09.433Z,2.17
2023-11-04T08:57:36.389Z,1.92
2023-11-04T09:00:07.139Z,2.10
2023-11-04T09:02:34.056Z,1.70
2023-11-04T09:05:07.670Z,1.77
2023-11-04T09:07:36.669Z,2.20
2023-11-04T09:10:04.267Z,1.92
2023-11-04T09:12:31.148Z,1.88
2023-11-04T09:14:58.022Z,1.70
2023-11-04T09:17:24.787Z,1.60
2023-11-04T09:19:52.714Z,2.00
2023-11-04T09:22:19.657Z,3.13
2023-11-04T09:24:46.722Z,2.08
2023-11-04T09:27:14.461Z,2.08
2023-11-04T09:29:41.118Z,1.88
2023-11-04T09:32:08.205Z,2.13
2023-11-04T09:34:35.690Z,2.10
2023-11-04T09:37:02.642Z,2.53
2023-11-04T09:39:29.426Z,2.90
2023-11-04T09:41:58.259Z,3.70
2023-11-04T09:44:25.002Z,2.20
2023-11-04T09:46:52.505Z,2.10
2023-11-04T09:49:19.728Z,1.90
2023-11-04T09:51:47.099Z,2.35
2023-11-04T09:54:15.555Z,1.85
2023-11-04T09:56:44.260Z,2.20
2023-11-04T09:59:11.109Z,1.65
2023-11-04T10:01:38.137Z,1.73
2023-11-04T10:04:05.369Z,1.90
2023-11-04T10:06:34.203Z,1.88
2023-11-04T10:09:02.709Z,1.80
2023-11-04T10:11:30.237Z,2.13
2023-11-04T10:13:58.274Z,2.80
2023-11-04T10:16:25.373Z,1.80
2023-11-04T10:18:53.990Z,2.58
2023-11-04T10:21:20.861Z,2.03
2023-11-04T10:23:50.349Z,1.40
2023-11-04T10:26:17.382Z,1.70
2023-11-04T10:28:44.885Z,1.55
2023-11-04T10:31:15.661Z,1.67
2023-11-04T10:33:44.257Z,1.25
2023-11-04T10:36:13.918Z,1.52
2023-11-04T10:38:46.008Z,1.85
2023-11-04T10:41:16.817Z,1.73
2023-11-04T10:44:04.810Z,1.75
2023-11-04T10:46:31.874Z,1.98
2023-11-04T10:49:20.352Z,2.03
2023-11-04T10:52:17.967Z,2.45
2023-11-04T10:55:05.985Z,2.13
2023-11-04T10:57:48.147Z,1.73
2023-11-04T11:00:21.468Z,1.75
2023-11-04T11:02:51.417Z,1.55
2023-11-04T11:07:51.000Z,1.50
2023-11-04T11:10:21.192Z,1.40
2023-11-04T11:12:58.058Z,1.63
2023-11-04T11:15:25.038Z,1.50
2023-11-04T11:18:00.726Z,1.42
2023-11-04T11:20:32.649Z,1.38
2023-11-04T11:23:02.402Z,1.45
2023-11-04T11:25:31.781Z,1.33
2023-11-04T11:28:03.708Z,1.40
2023-11-04T11:30:35.242Z,1.50
2023-11-04T11:33:13.526Z,1.73
2023-11-04T11:36:16.536Z,1.50
2023-11-04T11:38:47.550Z,1.58
2023-11-04T11:41:16.156Z,1.92
2023-11-04T11:43:49.637Z,2.00
2023-11-04T11:46:16.406Z,1.88
2023-11-04T11:48:46.848Z,2.00
2023-11-04T11:51:15.463Z,1.25
2023-11-04T11:53:47.049Z,1.38
2023-11-04T11:56:14.082Z,1.80
2023-11-04T11:58:41.491Z,1.67
2023-11-04T12:01:15.198Z,1.77
2023-11-04T12:03:42.376Z,1.75
2023-11-04T12:06:12.726Z,1.70
2023-11-04T12:08:39.510Z,1.70
2023-11-04T12:11:07.340Z,1.70
2023-11-04T12:13:34.221Z,1.80
2023-11-04T12:16:02.068Z,1.90
2023-11-04T12:18:29.995Z,2.20
2023-11-04T12:20:57.085Z,1.92
2023-11-04T12:23:29.309Z,2.05
2023-11-04T12:25:57.855Z,2.08
2023-11-04T12:28:27.363Z,2.35
2023-11-04T12:31:12.044Z,2.20
2023-11-04T12:33:39.297Z,2.45
2023-11-04T12:36:09.742Z,1.80
2023-11-04T12:38:45.462Z,2.20
2023-11-04T12:41:15.768Z,1.73
2023-11-04T12:43:43.885Z,1.63
2023-11-04T12:46:12.343Z,2.47
2023-11-04T12:48:39.505Z,2.20
2023-11-04T12:51:06.785Z,1.98
2023-11-04T12:53:35.716Z,2.00
2023-11-04T12:56:02.809Z,2.60
2023-11-04T12:58:33.154Z,1.58
2023-11-04T13:01:00.923Z,1.70
2023-11-04T13:03:29.396Z,1.80
2023-11-04T13:05:57.017Z,2.08
2023-11-04T13:08:24.034Z,2.40
2023-11-04T13:10:51.892Z,2.10
2023-11-04T13:13:18.672Z,2.40
2023-11-04T13:15:45.545Z,2.25
2023-11-04T13:18:15.034Z,2.28
2023-11-04T13:20:41.865Z,2.20
2023-11-04T13:23:08.586Z,1.60
2023-11-04T13:25:36.190Z,2.22
2023-11-04T13:28:03.359Z,1.63
2023-11-04T13:30:31.886Z,1.88
2023-11-04T13:32:59.009Z,1.77
2023-11-04T13:35:26.926Z,1.55
2023-11-04T13:37:56.869Z,1.73
2023-11-04T13:42:50.601Z,1.95
2023-11-04T13:45:17.855Z,1.85
2023-11-04T13:47:45.477Z,2.10
2023-11-04T13:50:12.389Z,3.50
2023-11-04T13:52:40.870Z,4.10
2023-11-04T13:55:08.427Z,3.75
2023-11-04T13:57:35.388Z,2.53
2023-11-04T14:00:04.572Z,3.53
2023-11-04T14:02:31.360Z,3.17
2023-11-04T14:05:00.851Z,3.40
2023-11-04T14:07:28.416Z,3.67
2023-11-04T14:09:56.315Z,3.30
2023-11-04T14:12:23.157Z,3.67
2023-11-04T14:14:50.022Z,3.20
2023-11-04T14:17:16.804Z,3.03
2023-11-04T14:19:43.670Z,3.30
2023-11-04T14:22:11.429Z,2.92
2023-11-04T14:24:40.008Z,2.65
2023-11-04T14:27:06.840Z,2.25
2023-11-04T14:29:36.207Z,2.38
2023-11-04T14:32:03.602Z,2.33
2023-11-04T14:34:32.493Z,3.08
2023-11-04T14:36:59.963Z,2.45
2023-11-04T14:39:27.865Z,1.77
2023-11-04T14:41:56.023Z,2.35
2023-11-04T14:44:23.527Z,2.20
2023-11-04T14:46:50.882Z,3.17
2023-11-04T14:49:18.263Z,4.07
2023-11-04T14:51:45.134Z,2.90
2023-11-04T14:54:11.933Z,2.45
2023-11-04T14:56:40.746Z,2.25
2023-11-04T14:59:07.666Z,3.05
2023-11-04T15:01:58.554Z,2.38
2023-11-04T15:04:25.637Z,2.83
2023-11-04T15:06:52.933Z,3.40
2023-11-04T15:09:21.002Z,3.40
2023-11-04T15:11:47.868Z,3.60
2023-11-04T15:14:14.798Z,4.03
2023-11-04T15:16:41.866Z,3.15
2023-11-04T15:19:09.338Z,4.13
2023-11-04T15:21:36.263Z,4.68
2023-11-04T15:24:03.600Z,4.30
2023-11-04T15:26:30.510Z,4.10
2023-11-04T15:28:58.646Z,4.13
2023-11-04T15:31:25.405Z,4.57
2023-11-04T15:33:53.321Z,4.50
2023-11-04T15:36:20.092Z,9.63
2023-11-04T15:38:47.304Z,12.07
2023-11-04T15:41:14.174Z,9.02
2023-11-04T15:43:41.429Z,5.18
2023-11-04T15:46:08.221Z,4.22
2023-11-04T15:48:35.236Z,4.15
2023-11-04T15:51:03.094Z,3.13
2023-11-04T15:53:29.988Z,3.03
2023-11-04T15:55:59.390Z,3.47
2023-11-04T15:58:29.124Z,3.35
2023-11-04T16:00:57.753Z,3.40
2023-11-04T16:03:26.188Z,3.88
2023-11-04T16:05:53.010Z,3.75
2023-11-04T16:08:22.230Z,4.18
2023-11-04T16:10:49.966Z,8.57
2023-11-04T16:13:19.742Z,12.15
2023-11-04T16:15:51.106Z,12.40
2023-11-04T16:18:18.012Z,11.15
2023-11-04T16:20:46.296Z,13.27
2023-11-04T16:23:13.181Z,11.70
2023-11-04T16:25:40.062Z,7.10
2023-11-04T16:28:08.330Z,7.57
2023-11-04T16:30:37.268Z,7.60
2023-11-04T16:33:04.315Z,12.77
2023-11-04T16:35:31.601Z,13.25
2023-11-04T16:37:58.605Z,10.85
2023-11-04T16:40:26.633Z,10.27
2023-11-04T16:42:53.589Z,11.55
2023-11-04T16:45:20.965Z,11.10
2023-11-04T16:47:47.842Z,8.93
2023-11-04T16:50:18.538Z,9.98
2023-11-04T16:52:46.095Z,7.18
2023-11-04T16:55:13.531Z,9.07
2023-11-04T16:57:40.346Z,8.77
2023-11-04T17:00:10.901Z,8.80
2023-11-04T17:02:37.846Z,9.43
2023-11-04T17:05:05.023Z,10.98
2023-11-04T17:07:32.850Z,6.68
2023-11-04T17:10:01.670Z,5.30
2023-11-04T17:12:28.752Z,5.93
2023-11-04T17:14:56.162Z,9.30
2023-11-04T17:17:22.916Z,17.08
2023-11-04T17:19:51.928Z,23.02
2023-11-04T17:22:20.945Z,11.93
2023-11-04T17:24:47.912Z,9.53
2023-11-04T17:27:33.123Z,12.07
2023-11-04T17:29:59.861Z,29.67
2023-11-04T17:32:27.803Z,23.25
2023-11-04T17:34:54.571Z,13.20
2023-11-04T17:37:21.734Z,11.98
2023-11-04T17:39:48.537Z,12.38
2023-11-04T17:42:15.529Z,13.63
2023-11-04T17:44:42.861Z,16.75
2023-11-04T17:47:09.891Z,7.97
2023-11-04T17:49:41.719Z,6.28
2023-11-04T17:52:11.254Z,7.55
2023-11-04T17:54:38.413Z,9.25
2023-11-04T17:57:06.976Z,14.45
2023-11-04T17:59:35.973Z,9.27
2023-11-04T18:02:03.552Z,8.50
2023-11-04T18:04:32.237Z,5.30
2023-11-04T18:06:59.222Z,7.65
2023-11-04T18:09:26.108Z,9.18
2023-11-04T18:11:53.019Z,18.10
2023-11-04T18:14:22.296Z,15.63
2023-11-04T18:16:49.436Z,19.52
2023-11-04T18:19:17.365Z,21.80
2023-11-04T18:21:47.806Z,16.00
2023-11-04T18:24:15.881Z,13.90
2023-11-04T18:26:44.764Z,9.98
2023-11-04T18:29:12.665Z,6.40
2023-11-04T18:31:39.611Z,10.38
2023-11-04T18:34:06.614Z,7.93
2023-11-04T18:36:33.827Z,8.20
2023-11-04T18:39:01.680Z,8.32
2023-11-04T18:41:28.600Z,8.55
2023-11-04T18:43:55.389Z,7.75
2023-11-04T18:46:22.282Z,8.23
2023-11-04T18:48:49.807Z,10.13
2023-11-04T18:51:23.084Z,9.70
2023-11-04T18:53:55.419Z,9.52
2023-11-04T18:56:22.359Z,11.73
2023-11-04T18:58:49.742Z,9.88
2023-11-04T19:01:23.930Z,9.38
2023-11-04T19:03:51.336Z,7.93
2023-11-04T19:06:19.504Z,9.23
2023-11-04T19:08:47.253Z,8.95
2023-11-04T19:11:14.202Z,11.45
2023-11-04T19:13:40.947Z,10.05
2023-11-04T19:16:10.834Z,10.90
2023-11-04T19:21:06.677Z,10.23
2023-11-04T19:26:02.691Z,12.43
2023-11-04T19:28:29.766Z,19.15
2023-11-04T19:30:56.544Z,21.55
2023-11-04T19:33:23.424Z,22.95
2023-11-04T19:35:51.104Z,15.20
2023-11-04T19:38:18.734Z,15.68
2023-11-04T19:40:45.502Z,21.17
2023-11-04T19:43:14.089Z,20.15
2023-11-04T19:45:40.870Z,24.63
2023-11-04T19:48:09.286Z,20.45
2023-11-04T19:50:36.084Z,21.23
2023-11-04T19:53:03.884Z,21.05
2023-11-04T19:55:30.720Z,20.65
2023-11-04T19:57:58.493Z,19.00
2023-11-04T20:00:26.935Z,19.77
2023-11-04T20:02:59.893Z,23.27
2023-11-04T20:05:27.274Z,20.20
2023-11-04T20:07:57.438Z,19.40
2023-11-04T20:10:25.288Z,17.80
2023-11-04T20:12:56.704Z,18.45
2023-11-04T20:15:24.345Z,17.85
2023-11-04T20:17:51.414Z,17.42
2023-11-04T20:20:18.252Z,17.85
2023-11-04T20:22:45.047Z,16.60
2023-11-04T20:25:13.110Z,17.55
2023-11-04T20:27:40.200Z,19.50
2023-11-04T20:30:08.304Z,19.55
2023-11-04T20:32:37.285Z,19.98
2023-11-04T20:35:04.338Z,18.67
2023-11-04T20:37:32.070Z,19.27
2023-11-04T20:39:59.012Z,20.13
2023-11-04T20:42:26.010Z,19.50
2023-11-04T20:44:54.154Z,19.05
2023-11-04T20:47:21.901Z,19.83
2023-11-04T20:49:50.536Z,18.77
2023-11-04T20:52:17.874Z,20.90
2023-11-04T20:54:44.757Z,21.20
2023-11-04T20:57:11.515Z,18.52
2023-11-04T20:59:39.510Z,20.33
2023-11-04T21:02:09.680Z,23.08
2023-11-04T21:04:37.047Z,21.50
2023-11-04T21:07:05.254Z,22.23
2023-11-04T21:09:32.252Z,27.52
2023-11-04T21:12:01.817Z,20.60
2023-11-04T21:14:29.654Z,19.77
2023-11-04T21:16:57.495Z,18.90
2023-11-04T21:19:24.661Z,17.75
2023-11-04T21:21:52.845Z,16.13
2023-11-04T21:24:20.043Z,17.25
2023-11-04T21:26:46.810Z,16.52
2023-11-04T21:29:14.048Z,15.25
2023-11-04T21:31:40.846Z,16.85
2023-11-04T21:34:09.294Z,16.50
2023-11-04T21:36:37.152Z,15.52
2023-11-04T21:39:04.993Z,15.65
2023-11-04T21:41:32.434Z,17.00
2023-11-04T21:44:00.319Z,15.25
2023-11-04T21:46:27.187Z,15.65
2023-11-04T21:48:54.098Z,14.43
2023-11-04T21:51:22.653Z,15.73
2023-11-04T21:53:49.510Z,16.73
2023-11-04T21:56:16.408Z,14.52
2023-11-04T21:58:44.081Z,16.30
2023-11-04T22:01:12.868Z,15.88
2023-11-04T22:03:40.566Z,13.20
2023-11-04T22:06:08.507Z,14.05
2023-11-04T22:08:36.158Z,12.95
2023-11-04T22:11:03.891Z,13.10
2023-11-04T22:13:30.715Z,13.27
2023-11-04T22:15:58.155Z,13.43
2023-11-04T22:18:25.342Z,11.05
2023-11-04T22:20:52.608Z,12.98
2023-11-04T22:23:19.341Z,12.40
2023-11-04T22:25:46.800Z,12.55
2023-11-04T22:28:14.420Z,11.43
2023-11-04T22:30:41.253Z,16.00
2023-11-04T22:33:08.050Z,15.43
2023-11-04T22:35:34.855Z,13.60
2023-11-04T22:38:01.621Z,10.70
2023-11-04T22:40:28.805Z,10.35
2023-11-04T22:42:55.697Z,11.27
2023-11-04T22:45:22.441Z,8.68
2023-11-04T22:47:49.296Z,9.90
2023-11-04T22:50:16.237Z,10.63
2023-11-04T22:52:43.002Z,9.98
2023-11-04T22:55:09.807Z,11.07
2023-11-04T22:57:36.651Z,10.93
2023-11-04T23:00:06.152Z,11.43
2023-11-04T23:02:34.715Z,9.68
2023-11-04T23:05:01.607Z,9.73
2023-11-04T23:07:31.575Z,10.75
2023-11-04T23:12:24.994Z,8.85
2023-11-04T23:14:52.570Z,11.20
2023-11-04T23:17:19.308Z,11.10
2023-11-04T23:19:46.070Z,12.70
2023-11-04T23:22:12.858Z,16.48
2023-11-04T23:24:39.696Z,14.07
2023-11-04T23:27:06.615Z,12.43
2023-11-04T23:29:33.585Z,12.85
2023-11-04T23:32:00.925Z,12.80
2023-11-04T23:34:27.731Z,14.25
2023-11-04T23:36:54.536Z,12.02
2023-11-04T23:39:24.281Z,12.05
2023-11-04T23:41:53.821Z,11.13
2023-11-04T23:44:20.551Z,9.23
2023-11-04T23:46:48.782Z,9.25
2023-11-04T23:49:15.701Z,8.38
2023-11-04T23:51:42.505Z,9.40
2023-11-04T23:54:09.249Z,8.00
2023-11-04T23:56:35.988Z,8.48
2023-11-04T23:59:03.564Z,8.43
